sensor_id;sensor_type;location;lat;lon;timestamp;temperature;humidity
54178;DHT22;40085;53.004;6.770;2023-08-06T00:02:13;13.70;99.90
54178;DHT22;40085;53.004;6.770;2023-08-06T00:04:39;14.50;99.90
54178;DHT22;40085;53.004;6.770;2023-08-06T00:07:04;14.00;99.90
54178;DHT22;40085;53.004;6.770;2023-08-06T00:09:30;14.10;99.90
54178;DHT22;40085;53.004;6.770;2023-08-06T00:11:56;14.10;99.90
54178;DHT22;40085;53.004;6.770;2023-08-06T00:14:21;14.10;99.90
54178;DHT22;40085;53.004;6.770;2023-08-06T00:16:47;14.10;99.90
54178;DHT22;40085;53.004;6.770;2023-08-06T00:19:12;14.20;99.90
54178;DHT22;40085;53.004;6.770;2023-08-06T00:21:38;14.10;99.90
54178;DHT22;40085;53.004;6.770;2023-08-06T00:24:04;13.70;99.90
54178;DHT22;40085;53.004;6.770;2023-08-06T00:26:30;14.10;99.90
54178;DHT22;40085;53.004;6.770;2023-08-06T00:28:55;14.10;99.90
54178;DHT22;40085;53.004;6.770;2023-08-06T00:31:21;14.10;99.90
54178;DHT22;40085;53.004;6.770;2023-08-06T00:33:46;14.20;99.90
54178;DHT22;40085;53.004;6.770;2023-08-06T00:36:12;14.10;99.90
54178;DHT22;40085;53.004;6.770;2023-08-06T00:38:37;14.10;99.90
54178;DHT22;40085;53.004;6.770;2023-08-06T00:41:03;14.10;99.90
54178;DHT22;40085;53.004;6.770;2023-08-06T00:43:29;14.10;99.90
54178;DHT22;40085;53.004;6.770;2023-08-06T00:45:54;13.90;99.90
54178;DHT22;40085;53.004;6.770;2023-08-06T00:48:21;14.80;99.90
54178;DHT22;40085;53.004;6.770;2023-08-06T00:50:47;14.10;99.90
54178;DHT22;40085;53.004;6.770;2023-08-06T00:53:13;14.10;99.90
54178;DHT22;40085;53.004;6.770;2023-08-06T00:55:38;14.10;99.90
54178;DHT22;40085;53.004;6.770;2023-08-06T00:58:05;14.10;99.90
54178;DHT22;40085;53.004;6.770;2023-08-06T01:00:30;14.40;99.90
54178;DHT22;40085;53.004;6.770;2023-08-06T01:02:56;14.10;99.90
54178;DHT22;40085;53.004;6.770;2023-08-06T01:05:22;14.10;99.90
54178;DHT22;40085;53.004;6.770;2023-08-06T01:13:22;14.20;99.90
54178;DHT22;40085;53.004;6.770;2023-08-06T01:15:54;14.20;99.90
54178;DHT22;40085;53.004;6.770;2023-08-06T01:18:21;14.10;99.90
54178;DHT22;40085;53.004;6.770;2023-08-06T01:20:46;14.10;99.90
54178;DHT22;40085;53.004;6.770;2023-08-06T01:23:12;14.10;99.90
54178;DHT22;40085;53.004;6.770;2023-08-06T01:31:37;14.10;99.90
54178;DHT22;40085;53.004;6.770;2023-08-06T01:34:07;14.10;99.90
54178;DHT22;40085;53.004;6.770;2023-08-06T01:36:34;14.10;99.90
54178;DHT22;40085;53.004;6.770;2023-08-06T01:39:00;14.60;99.90
54178;DHT22;40085;53.004;6.770;2023-08-06T01:41:26;14.10;99.90
54178;DHT22;40085;53.004;6.770;2023-08-06T01:43:51;14.10;99.90
54178;DHT22;40085;53.004;6.770;2023-08-06T01:46:17;14.10;99.90
54178;DHT22;40085;53.004;6.770;2023-08-06T01:48:43;14.80;99.90
54178;DHT22;40085;53.004;6.770;2023-08-06T01:51:08;14.10;99.90
54178;DHT22;40085;53.004;6.770;2023-08-06T01:53:34;14.60;99.90
54178;DHT22;40085;53.004;6.770;2023-08-06T01:56:00;14.10;99.90
54178;DHT22;40085;53.004;6.770;2023-08-06T01:58:26;14.10;99.90
54178;DHT22;40085;53.004;6.770;2023-08-06T02:00:51;14.10;99.90
54178;DHT22;40085;53.004;6.770;2023-08-06T02:03:17;14.30;99.90
54178;DHT22;40085;53.004;6.770;2023-08-06T02:05:42;14.20;99.90
54178;DHT22;40085;53.004;6.770;2023-08-06T02:08:08;14.20;99.90
54178;DHT22;40085;53.004;6.770;2023-08-06T02:10:34;14.10;99.90
54178;DHT22;40085;53.004;6.770;2023-08-06T02:12:59;14.20;99.90
54178;DHT22;40085;53.004;6.770;2023-08-06T02:15:25;14.10;99.90
54178;DHT22;40085;53.004;6.770;2023-08-06T02:17:51;14.50;99.90
54178;DHT22;40085;53.004;6.770;2023-08-06T02:20:16;14.10;99.90
54178;DHT22;40085;53.004;6.770;2023-08-06T02:22:42;14.10;99.90
54178;DHT22;40085;53.004;6.770;2023-08-06T02:25:08;14.10;99.90
54178;DHT22;40085;53.004;6.770;2023-08-06T02:27:33;14.10;99.90
54178;DHT22;40085;53.004;6.770;2023-08-06T02:29:59;14.10;99.90
54178;DHT22;40085;53.004;6.770;2023-08-06T02:32:25;14.10;99.90
54178;DHT22;40085;53.004;6.770;2023-08-06T02:34:50;14.40;99.90
54178;DHT22;40085;53.004;6.770;2023-08-06T02:37:16;14.10;99.90
54178;DHT22;40085;53.004;6.770;2023-08-06T02:39:41;14.10;99.90
54178;DHT22;40085;53.004;6.770;2023-08-06T02:42:08;14.20;99.90
54178;DHT22;40085;53.004;6.770;2023-08-06T02:44:34;14.20;99.90
54178;DHT22;40085;53.004;6.770;2023-08-06T02:47:00;14.20;99.90
54178;DHT22;40085;53.004;6.770;2023-08-06T02:49:26;14.80;99.90
54178;DHT22;40085;53.004;6.770;2023-08-06T02:51:52;14.20;99.90
54178;DHT22;40085;53.004;6.770;2023-08-06T02:54:18;14.20;99.90
54178;DHT22;40085;53.004;6.770;2023-08-06T02:56:44;14.00;99.90
54178;DHT22;40085;53.004;6.770;2023-08-06T02:59:10;14.20;99.90
54178;DHT22;40085;53.004;6.770;2023-08-06T03:01:36;14.50;99.90
54178;DHT22;40085;53.004;6.770;2023-08-06T03:04:02;14.10;99.90
54178;DHT22;40085;53.004;6.770;2023-08-06T03:06:28;14.20;99.90
54178;DHT22;40085;53.004;6.770;2023-08-06T03:08:54;14.10;99.90
54178;DHT22;40085;53.004;6.770;2023-08-06T03:11:19;14.20;99.90
54178;DHT22;40085;53.004;6.770;2023-08-06T03:13:45;14.30;99.90
54178;DHT22;40085;53.004;6.770;2023-08-06T03:16:10;13.90;99.90
54178;DHT22;40085;53.004;6.770;2023-08-06T03:18:36;14.10;99.90
54178;DHT22;40085;53.004;6.770;2023-08-06T03:21:02;14.10;99.90
54178;DHT22;40085;53.004;6.770;2023-08-06T03:23:27;14.10;99.90
54178;DHT22;40085;53.004;6.770;2023-08-06T03:25:53;14.10;99.90
54178;DHT22;40085;53.004;6.770;2023-08-06T03:28:18;14.00;99.90
54178;DHT22;40085;53.004;6.770;2023-08-06T03:30:44;14.00;99.90
54178;DHT22;40085;53.004;6.770;2023-08-06T03:33:10;14.00;99.90
54178;DHT22;40085;53.004;6.770;2023-08-06T03:35:35;13.90;99.90
54178;DHT22;40085;53.004;6.770;2023-08-06T03:38:01;13.90;99.90
54178;DHT22;40085;53.004;6.770;2023-08-06T03:40:26;13.90;99.90
54178;DHT22;40085;53.004;6.770;2023-08-06T03:42:52;13.80;99.90
54178;DHT22;40085;53.004;6.770;2023-08-06T03:45:18;13.80;99.90
54178;DHT22;40085;53.004;6.770;2023-08-06T03:47:43;13.70;99.90
54178;DHT22;40085;53.004;6.770;2023-08-06T03:50:09;14.30;99.90
54178;DHT22;40085;53.004;6.770;2023-08-06T03:52:35;13.60;99.90
54178;DHT22;40085;53.004;6.770;2023-08-06T03:55:00;13.60;99.90
54178;DHT22;40085;53.004;6.770;2023-08-06T03:57:26;13.60;99.90
54178;DHT22;40085;53.004;6.770;2023-08-06T03:59:52;13.80;99.90
54178;DHT22;40085;53.004;6.770;2023-08-06T04:02:17;13.20;99.90
54178;DHT22;40085;53.004;6.770;2023-08-06T04:04:43;13.50;99.90
54178;DHT22;40085;53.004;6.770;2023-08-06T04:07:08;13.50;99.90
54178;DHT22;40085;53.004;6.770;2023-08-06T04:09:34;14.10;99.90
54178;DHT22;40085;53.004;6.770;2023-08-06T04:12:16;13.40;99.90
54178;DHT22;40085;53.004;6.770;2023-08-06T04:14:41;13.30;99.90
54178;DHT22;40085;53.004;6.770;2023-08-06T04:17:07;13.70;99.90
54178;DHT22;40085;53.004;6.770;2023-08-06T04:19:32;13.30;99.90
54178;DHT22;40085;53.004;6.770;2023-08-06T04:21:58;13.30;99.90
54178;DHT22;40085;53.004;6.770;2023-08-06T04:24:23;13.90;99.90
54178;DHT22;40085;53.004;6.770;2023-08-06T04:26:49;13.30;99.90
54178;DHT22;40085;53.004;6.770;2023-08-06T04:29:14;13.60;99.90
54178;DHT22;40085;53.004;6.770;2023-08-06T04:31:40;14.10;99.90
54178;DHT22;40085;53.004;6.770;2023-08-06T04:34:05;13.40;99.90
54178;DHT22;40085;53.004;6.770;2023-08-06T04:36:33;13.80;99.90
54178;DHT22;40085;53.004;6.770;2023-08-06T04:38:58;14.00;99.90
54178;DHT22;40085;53.004;6.770;2023-08-06T04:41:24;13.70;99.90
54178;DHT22;40085;53.004;6.770;2023-08-06T04:43:50;13.40;99.90
54178;DHT22;40085;53.004;6.770;2023-08-06T04:46:15;13.50;99.90
54178;DHT22;40085;53.004;6.770;2023-08-06T04:48:41;13.40;99.90
54178;DHT22;40085;53.004;6.770;2023-08-06T04:51:06;13.50;99.90
54178;DHT22;40085;53.004;6.770;2023-08-06T04:53:32;13.30;99.90
54178;DHT22;40085;53.004;6.770;2023-08-06T04:55:57;13.40;99.90
54178;DHT22;40085;53.004;6.770;2023-08-06T04:58:23;13.50;99.90
54178;DHT22;40085;53.004;6.770;2023-08-06T05:00:48;13.70;99.90
54178;DHT22;40085;53.004;6.770;2023-08-06T05:03:14;13.20;99.90
54178;DHT22;40085;53.004;6.770;2023-08-06T05:05:40;13.60;99.90
54178;DHT22;40085;53.004;6.770;2023-08-06T05:08:06;13.20;99.90
54178;DHT22;40085;53.004;6.770;2023-08-06T05:10:32;13.80;99.90
54178;DHT22;40085;53.004;6.770;2023-08-06T05:12:58;13.60;99.90
54178;DHT22;40085;53.004;6.770;2023-08-06T05:15:24;13.40;99.90
54178;DHT22;40085;53.004;6.770;2023-08-06T05:17:51;14.30;99.90
54178;DHT22;40085;53.004;6.770;2023-08-06T05:20:16;14.10;99.90
54178;DHT22;40085;53.004;6.770;2023-08-06T05:22:43;13.50;99.90
54178;DHT22;40085;53.004;6.770;2023-08-06T05:25:09;13.60;99.90
54178;DHT22;40085;53.004;6.770;2023-08-06T05:27:34;13.80;99.90
54178;DHT22;40085;53.004;6.770;2023-08-06T05:30:00;13.80;99.90
54178;DHT22;40085;53.004;6.770;2023-08-06T05:32:25;14.00;99.90
54178;DHT22;40085;53.004;6.770;2023-08-06T05:34:51;14.00;99.90
54178;DHT22;40085;53.004;6.770;2023-08-06T05:37:17;14.10;99.90
54178;DHT22;40085;53.004;6.770;2023-08-06T05:39:42;14.20;99.90
54178;DHT22;40085;53.004;6.770;2023-08-06T05:42:08;14.00;99.90
54178;DHT22;40085;53.004;6.770;2023-08-06T05:44:33;14.30;99.90
54178;DHT22;40085;53.004;6.770;2023-08-06T05:46:59;13.90;99.90
54178;DHT22;40085;53.004;6.770;2023-08-06T05:49:25;13.80;99.90
54178;DHT22;40085;53.004;6.770;2023-08-06T05:51:50;13.90;99.90
54178;DHT22;40085;53.004;6.770;2023-08-06T05:54:18;14.20;99.90
54178;DHT22;40085;53.004;6.770;2023-08-06T05:56:44;14.50;99.90
54178;DHT22;40085;53.004;6.770;2023-08-06T05:59:10;14.40;99.90
54178;DHT22;40085;53.004;6.770;2023-08-06T06:01:35;14.50;99.90
54178;DHT22;40085;53.004;6.770;2023-08-06T06:04:01;14.70;99.90
54178;DHT22;40085;53.004;6.770;2023-08-06T06:06:27;14.80;99.90
54178;DHT22;40085;53.004;6.770;2023-08-06T06:08:52;14.80;99.90
54178;DHT22;40085;53.004;6.770;2023-08-06T06:11:18;14.90;99.90
54178;DHT22;40085;53.004;6.770;2023-08-06T06:13:49;15.00;99.90
54178;DHT22;40085;53.004;6.770;2023-08-06T06:16:15;15.10;99.90
54178;DHT22;40085;53.004;6.770;2023-08-06T06:18:40;15.20;99.90
54178;DHT22;40085;53.004;6.770;2023-08-06T06:21:06;15.20;99.90
54178;DHT22;40085;53.004;6.770;2023-08-06T06:23:31;15.80;99.90
54178;DHT22;40085;53.004;6.770;2023-08-06T06:25:57;15.50;99.90
54178;DHT22;40085;53.004;6.770;2023-08-06T06:28:22;15.40;99.90
54178;DHT22;40085;53.004;6.770;2023-08-06T06:30:48;15.40;99.90
54178;DHT22;40085;53.004;6.770;2023-08-06T06:33:14;15.40;99.90
54178;DHT22;40085;53.004;6.770;2023-08-06T06:35:39;15.40;99.90
54178;DHT22;40085;53.004;6.770;2023-08-06T06:38:05;15.30;99.90
54178;DHT22;40085;53.004;6.770;2023-08-06T06:40:30;15.30;99.90
54178;DHT22;40085;53.004;6.770;2023-08-06T06:42:56;15.40;99.90
54178;DHT22;40085;53.004;6.770;2023-08-06T06:45:22;15.30;99.90
54178;DHT22;40085;53.004;6.770;2023-08-06T06:47:47;15.40;99.90
54178;DHT22;40085;53.004;6.770;2023-08-06T06:50:13;15.40;99.90
54178;DHT22;40085;53.004;6.770;2023-08-06T06:52:38;15.50;99.90
54178;DHT22;40085;53.004;6.770;2023-08-06T06:55:04;15.30;99.90
54178;DHT22;40085;53.004;6.770;2023-08-06T06:57:30;15.40;99.90
54178;DHT22;40085;53.004;6.770;2023-08-06T06:59:56;15.40;99.90
54178;DHT22;40085;53.004;6.770;2023-08-06T07:02:21;15.50;99.90
54178;DHT22;40085;53.004;6.770;2023-08-06T07:04:47;15.40;99.90
54178;DHT22;40085;53.004;6.770;2023-08-06T07:07:12;15.50;99.90
54178;DHT22;40085;53.004;6.770;2023-08-06T07:09:38;15.50;99.90
54178;DHT22;40085;53.004;6.770;2023-08-06T07:12:04;15.60;99.90
54178;DHT22;40085;53.004;6.770;2023-08-06T07:14:30;15.70;99.90
54178;DHT22;40085;53.004;6.770;2023-08-06T07:16:55;15.70;99.90
54178;DHT22;40085;53.004;6.770;2023-08-06T07:19:21;15.70;99.90
54178;DHT22;40085;53.004;6.770;2023-08-06T07:21:46;15.80;99.90
54178;DHT22;40085;53.004;6.770;2023-08-06T07:24:12;15.90;99.90
54178;DHT22;40085;53.004;6.770;2023-08-06T07:26:38;16.00;99.90
54178;DHT22;40085;53.004;6.770;2023-08-06T07:29:03;16.00;99.90
54178;DHT22;40085;53.004;6.770;2023-08-06T07:31:29;15.90;99.90
54178;DHT22;40085;53.004;6.770;2023-08-06T07:33:54;16.00;99.90
54178;DHT22;40085;53.004;6.770;2023-08-06T07:36:20;16.00;99.90
54178;DHT22;40085;53.004;6.770;2023-08-06T07:38:46;16.40;99.90
54178;DHT22;40085;53.004;6.770;2023-08-06T07:41:14;16.00;99.90
54178;DHT22;40085;53.004;6.770;2023-08-06T07:43:39;16.20;99.90
54178;DHT22;40085;53.004;6.770;2023-08-06T07:46:05;16.20;99.90
54178;DHT22;40085;53.004;6.770;2023-08-06T07:48:31;16.30;99.90
54178;DHT22;40085;53.004;6.770;2023-08-06T07:50:57;16.70;99.90
54178;DHT22;40085;53.004;6.770;2023-08-06T07:53:23;16.70;99.90
54178;DHT22;40085;53.004;6.770;2023-08-06T07:55:53;16.30;99.90
54178;DHT22;40085;53.004;6.770;2023-08-06T07:58:20;16.50;99.90
54178;DHT22;40085;53.004;6.770;2023-08-06T08:00:46;16.50;99.90
54178;DHT22;40085;53.004;6.770;2023-08-06T08:03:15;16.50;99.90
54178;DHT22;40085;53.004;6.770;2023-08-06T08:05:42;16.60;99.90
54178;DHT22;40085;53.004;6.770;2023-08-06T08:08:08;16.70;99.90
54178;DHT22;40085;53.004;6.770;2023-08-06T08:10:34;16.80;99.90
54178;DHT22;40085;53.004;6.770;2023-08-06T08:13:01;16.90;99.90
54178;DHT22;40085;53.004;6.770;2023-08-06T08:15:29;16.90;99.90
54178;DHT22;40085;53.004;6.770;2023-08-06T08:17:54;17.40;99.90
54178;DHT22;40085;53.004;6.770;2023-08-06T10:06:31;19.90;99.90
54178;DHT22;40085;53.004;6.770;2023-08-06T10:08:58;19.80;99.90
54178;DHT22;40085;53.004;6.770;2023-08-06T10:11:25;19.70;99.90
54178;DHT22;40085;53.004;6.770;2023-08-06T10:13:57;19.90;99.90
54178;DHT22;40085;53.004;6.770;2023-08-06T10:16:23;20.00;99.90
54178;DHT22;40085;53.004;6.770;2023-08-06T10:18:50;20.40;99.90
54178;DHT22;40085;53.004;6.770;2023-08-06T10:21:17;20.40;99.90
54178;DHT22;40085;53.004;6.770;2023-08-06T10:23:42;20.70;99.30
54178;DHT22;40085;53.004;6.770;2023-08-06T10:26:08;20.90;99.90
54178;DHT22;40085;53.004;6.770;2023-08-06T10:28:36;21.20;98.90
54178;DHT22;40085;53.004;6.770;2023-08-06T10:31:02;21.60;96.30
54178;DHT22;40085;53.004;6.770;2023-08-06T10:33:42;21.00;94.10
54178;DHT22;40085;53.004;6.770;2023-08-06T10:36:09;21.00;93.00
54178;DHT22;40085;53.004;6.770;2023-08-06T10:38:36;20.90;96.40
54178;DHT22;40085;53.004;6.770;2023-08-06T10:41:28;20.90;96.30
54178;DHT22;40085;53.004;6.770;2023-08-06T10:44:06;20.70;94.90
54178;DHT22;40085;53.004;6.770;2023-08-06T10:46:36;20.50;91.80
54178;DHT22;40085;53.004;6.770;2023-08-06T10:49:03;20.50;96.00
54178;DHT22;40085;53.004;6.770;2023-08-06T10:51:28;20.50;95.20
54178;DHT22;40085;53.004;6.770;2023-08-06T10:53:54;21.00;90.60
54178;DHT22;40085;53.004;6.770;2023-08-06T10:56:22;20.50;89.20
54178;DHT22;40085;53.004;6.770;2023-08-06T10:58:51;20.10;1.00
54178;DHT22;40085;53.004;6.770;2023-08-06T11:01:17;19.90;99.90
54178;DHT22;40085;53.004;6.770;2023-08-06T11:03:45;19.90;1.00
54178;DHT22;40085;53.004;6.770;2023-08-06T11:06:11;19.90;99.90
54178;DHT22;40085;53.004;6.770;2023-08-06T11:08:48;19.90;99.90
54178;DHT22;40085;53.004;6.770;2023-08-06T11:11:15;19.90;99.90
54178;DHT22;40085;53.004;6.770;2023-08-06T11:13:42;19.90;99.90
54178;DHT22;40085;53.004;6.770;2023-08-06T11:16:09;20.20;99.90
54178;DHT22;40085;53.004;6.770;2023-08-06T11:18:35;20.00;99.90
54178;DHT22;40085;53.004;6.770;2023-08-06T11:21:02;20.40;99.90
54178;DHT22;40085;53.004;6.770;2023-08-06T11:23:28;20.30;99.90
54178;DHT22;40085;53.004;6.770;2023-08-06T11:25:58;20.30;99.90
54178;DHT22;40085;53.004;6.770;2023-08-06T11:28:24;20.50;99.90
54178;DHT22;40085;53.004;6.770;2023-08-06T11:30:50;20.40;99.90
54178;DHT22;40085;53.004;6.770;2023-08-06T11:33:22;20.50;99.90
54178;DHT22;40085;53.004;6.770;2023-08-06T11:35:49;20.40;99.90
54178;DHT22;40085;53.004;6.770;2023-08-06T11:38:15;20.50;99.90
54178;DHT22;40085;53.004;6.770;2023-08-06T11:40:46;20.50;99.90
54178;DHT22;40085;53.004;6.770;2023-08-06T11:43:13;20.50;99.90
54178;DHT22;40085;53.004;6.770;2023-08-06T11:45:38;20.40;99.90
54178;DHT22;40085;53.004;6.770;2023-08-06T11:48:05;20.30;99.90
54178;DHT22;40085;53.004;6.770;2023-08-06T11:50:30;20.20;99.90
54178;DHT22;40085;53.004;6.770;2023-08-06T11:52:57;20.40;99.90
54178;DHT22;40085;53.004;6.770;2023-08-06T11:55:25;20.50;1.00
54178;DHT22;40085;53.004;6.770;2023-08-06T11:57:50;20.70;99.90
54178;DHT22;40085;53.004;6.770;2023-08-06T12:00:16;20.60;99.90
54178;DHT22;40085;53.004;6.770;2023-08-06T12:02:45;20.60;99.90
54178;DHT22;40085;53.004;6.770;2023-08-06T12:05:15;20.60;99.90
54178;DHT22;40085;53.004;6.770;2023-08-06T12:07:45;20.50;99.90
54178;DHT22;40085;53.004;6.770;2023-08-06T12:10:13;20.20;99.90
54178;DHT22;40085;53.004;6.770;2023-08-06T12:12:38;20.40;1.00
54178;DHT22;40085;53.004;6.770;2023-08-06T12:15:08;20.30;99.90
54178;DHT22;40085;53.004;6.770;2023-08-06T12:17:35;20.20;99.90
54178;DHT22;40085;53.004;6.770;2023-08-06T12:20:01;20.10;1.00
54178;DHT22;40085;53.004;6.770;2023-08-06T12:22:26;20.20;1.00
54178;DHT22;40085;53.004;6.770;2023-08-06T12:24:52;20.00;99.90
54178;DHT22;40085;53.004;6.770;2023-08-06T12:27:18;19.90;99.90
54178;DHT22;40085;53.004;6.770;2023-08-06T12:29:45;20.00;2.40
54178;DHT22;40085;53.004;6.770;2023-08-06T12:32:12;20.10;99.90
54178;DHT22;40085;53.004;6.770;2023-08-06T12:34:41;20.30;1.00
54178;DHT22;40085;53.004;6.770;2023-08-06T12:37:08;20.20;99.90
54178;DHT22;40085;53.004;6.770;2023-08-06T12:39:35;20.40;55.40
54178;DHT22;40085;53.004;6.770;2023-08-06T12:42:01;20.60;99.90
54178;DHT22;40085;53.004;6.770;2023-08-06T12:44:28;20.70;1.00
54178;DHT22;40085;53.004;6.770;2023-08-06T12:46:54;20.70;1.00
54178;DHT22;40085;53.004;6.770;2023-08-06T12:49:20;20.70;99.90
54178;DHT22;40085;53.004;6.770;2023-08-06T12:51:49;20.60;99.90
54178;DHT22;40085;53.004;6.770;2023-08-06T12:54:19;20.50;57.20
54178;DHT22;40085;53.004;6.770;2023-08-06T12:56:46;20.50;99.90
54178;DHT22;40085;53.004;6.770;2023-08-06T12:59:15;20.40;99.90
54178;DHT22;40085;53.004;6.770;2023-08-06T13:01:41;20.40;1.00
54178;DHT22;40085;53.004;6.770;2023-08-06T13:04:07;20.40;99.90
54178;DHT22;40085;53.004;6.770;2023-08-06T13:06:33;20.50;99.90
54178;DHT22;40085;53.004;6.770;2023-08-06T13:09:09;20.70;99.90
54178;DHT22;40085;53.004;6.770;2023-08-06T13:11:36;21.60;99.90
54178;DHT22;40085;53.004;6.770;2023-08-06T13:14:09;21.00;99.90
54178;DHT22;40085;53.004;6.770;2023-08-06T13:16:36;21.00;99.90
54178;DHT22;40085;53.004;6.770;2023-08-06T13:19:02;20.80;99.90
54178;DHT22;40085;53.004;6.770;2023-08-06T13:24:06;20.60;99.90
54178;DHT22;40085;53.004;6.770;2023-08-06T13:26:32;20.70;99.90
54178;DHT22;40085;53.004;6.770;2023-08-06T13:28:58;21.00;99.90
54178;DHT22;40085;53.004;6.770;2023-08-06T13:31:25;21.00;99.90
54178;DHT22;40085;53.004;6.770;2023-08-06T13:33:51;21.00;3.20
54178;DHT22;40085;53.004;6.770;2023-08-06T13:36:17;21.00;43.20
54178;DHT22;40085;53.004;6.770;2023-08-06T13:38:43;21.10;1.00
54178;DHT22;40085;53.004;6.770;2023-08-06T13:41:09;21.10;1.00
54178;DHT22;40085;53.004;6.770;2023-08-06T13:43:34;21.20;1.00
54178;DHT22;40085;53.004;6.770;2023-08-06T13:46:00;21.20;1.00
54178;DHT22;40085;53.004;6.770;2023-08-06T13:48:26;21.20;99.90
54178;DHT22;40085;53.004;6.770;2023-08-06T13:50:51;21.30;1.00
54178;DHT22;40085;53.004;6.770;2023-08-06T13:53:17;21.30;99.90
54178;DHT22;40085;53.004;6.770;2023-08-06T13:55:42;21.30;1.00
54178;DHT22;40085;53.004;6.770;2023-08-06T13:58:08;21.40;1.00
54178;DHT22;40085;53.004;6.770;2023-08-06T14:00:35;21.60;99.90
54178;DHT22;40085;53.004;6.770;2023-08-06T14:03:01;21.60;99.90
54178;DHT22;40085;53.004;6.770;2023-08-06T14:05:27;21.50;99.90
54178;DHT22;40085;53.004;6.770;2023-08-06T14:07:52;21.30;99.90
54178;DHT22;40085;53.004;6.770;2023-08-06T14:10:18;21.10;99.90
54178;DHT22;40085;53.004;6.770;2023-08-06T14:12:43;21.00;99.90
54178;DHT22;40085;53.004;6.770;2023-08-06T14:15:10;20.90;1.00
54178;DHT22;40085;53.004;6.770;2023-08-06T14:17:36;20.80;1.00
54178;DHT22;40085;53.004;6.770;2023-08-06T14:20:01;20.70;1.00
54178;DHT22;40085;53.004;6.770;2023-08-06T14:22:33;20.90;1.00
54178;DHT22;40085;53.004;6.770;2023-08-06T14:24:58;20.60;99.90
54178;DHT22;40085;53.004;6.770;2023-08-06T14:27:24;20.60;99.90
54178;DHT22;40085;53.004;6.770;2023-08-06T14:29:50;20.60;99.90
54178;DHT22;40085;53.004;6.770;2023-08-06T14:32:16;20.60;99.90
54178;DHT22;40085;53.004;6.770;2023-08-06T14:34:43;20.60;99.90
54178;DHT22;40085;53.004;6.770;2023-08-06T14:37:10;20.50;99.90
54178;DHT22;40085;53.004;6.770;2023-08-06T14:39:35;20.60;99.90
54178;DHT22;40085;53.004;6.770;2023-08-06T14:42:01;20.40;99.90
54178;DHT22;40085;53.004;6.770;2023-08-06T14:44:27;20.40;99.90
54178;DHT22;40085;53.004;6.770;2023-08-06T14:46:53;20.40;99.90
54178;DHT22;40085;53.004;6.770;2023-08-06T14:49:18;20.40;1.00
54178;DHT22;40085;53.004;6.770;2023-08-06T14:51:44;20.60;99.90
54178;DHT22;40085;53.004;6.770;2023-08-06T14:54:09;20.60;99.90
54178;DHT22;40085;53.004;6.770;2023-08-06T14:56:35;20.50;99.90
54178;DHT22;40085;53.004;6.770;2023-08-06T14:59:00;20.50;99.90
54178;DHT22;40085;53.004;6.770;2023-08-06T15:01:26;20.50;99.90
54178;DHT22;40085;53.004;6.770;2023-08-06T15:03:52;20.30;99.90
54178;DHT22;40085;53.004;6.770;2023-08-06T15:06:17;20.40;99.90
54178;DHT22;40085;53.004;6.770;2023-08-06T15:08:43;20.70;99.90
54178;DHT22;40085;53.004;6.770;2023-08-06T15:11:10;20.90;99.90
54178;DHT22;40085;53.004;6.770;2023-08-06T15:13:36;21.00;99.90
54178;DHT22;40085;53.004;6.770;2023-08-06T15:16:01;21.00;1.00
54178;DHT22;40085;53.004;6.770;2023-08-06T15:18:27;21.20;1.00
54178;DHT22;40085;53.004;6.770;2023-08-06T15:20:53;21.30;1.00
54178;DHT22;40085;53.004;6.770;2023-08-06T15:23:18;21.20;99.90
54178;DHT22;40085;53.004;6.770;2023-08-06T15:25:45;21.60;99.90
54178;DHT22;40085;53.004;6.770;2023-08-06T15:28:10;21.20;99.90
54178;DHT22;40085;53.004;6.770;2023-08-06T15:30:36;21.10;99.90
54178;DHT22;40085;53.004;6.770;2023-08-06T15:33:02;21.00;99.90
54178;DHT22;40085;53.004;6.770;2023-08-06T15:35:27;21.00;99.90
54178;DHT22;40085;53.004;6.770;2023-08-06T15:37:53;21.00;99.90
54178;DHT22;40085;53.004;6.770;2023-08-06T15:40:19;21.00;99.90
54178;DHT22;40085;53.004;6.770;2023-08-06T15:42:44;21.00;99.90
54178;DHT22;40085;53.004;6.770;2023-08-06T15:45:10;20.90;99.90
54178;DHT22;40085;53.004;6.770;2023-08-06T15:47:35;21.20;99.90
54178;DHT22;40085;53.004;6.770;2023-08-06T15:50:07;20.70;99.90
54178;DHT22;40085;53.004;6.770;2023-08-06T15:52:33;20.80;99.90
54178;DHT22;40085;53.004;6.770;2023-08-06T15:54:59;20.80;99.90
54178;DHT22;40085;53.004;6.770;2023-08-06T15:57:31;20.80;99.90
54178;DHT22;40085;53.004;6.770;2023-08-06T15:59:56;20.90;99.90
54178;DHT22;40085;53.004;6.770;2023-08-06T16:02:22;21.40;99.90
54178;DHT22;40085;53.004;6.770;2023-08-06T16:04:49;20.80;99.90
54178;DHT22;40085;53.004;6.770;2023-08-06T16:07:15;20.70;99.90
54178;DHT22;40085;53.004;6.770;2023-08-06T16:09:40;20.80;99.90
54178;DHT22;40085;53.004;6.770;2023-08-06T16:12:06;20.70;99.90
54178;DHT22;40085;53.004;6.770;2023-08-06T16:14:32;20.70;99.90
54178;DHT22;40085;53.004;6.770;2023-08-06T16:16:57;20.90;99.90
54178;DHT22;40085;53.004;6.770;2023-08-06T16:19:23;21.00;99.90
54178;DHT22;40085;53.004;6.770;2023-08-06T16:21:48;20.90;99.90
54178;DHT22;40085;53.004;6.770;2023-08-06T16:24:14;20.80;99.90
54178;DHT22;40085;53.004;6.770;2023-08-06T16:26:40;20.70;99.90
54178;DHT22;40085;53.004;6.770;2023-08-06T16:29:05;21.00;99.90
54178;DHT22;40085;53.004;6.770;2023-08-06T16:31:31;20.30;99.90
54178;DHT22;40085;53.004;6.770;2023-08-06T16:33:56;20.30;99.90
54178;DHT22;40085;53.004;6.770;2023-08-06T16:36:22;20.20;99.90
54178;DHT22;40085;53.004;6.770;2023-08-06T16:38:48;20.30;99.90
54178;DHT22;40085;53.004;6.770;2023-08-06T16:41:14;20.40;99.90
54178;DHT22;40085;53.004;6.770;2023-08-06T16:43:40;20.40;99.90
54178;DHT22;40085;53.004;6.770;2023-08-06T16:46:06;20.40;99.90
54178;DHT22;40085;53.004;6.770;2023-08-06T16:48:31;20.50;99.90
54178;DHT22;40085;53.004;6.770;2023-08-06T16:51:02;20.50;99.90
54178;DHT22;40085;53.004;6.770;2023-08-06T16:53:28;20.40;99.90
54178;DHT22;40085;53.004;6.770;2023-08-06T16:55:55;20.30;99.90
54178;DHT22;40085;53.004;6.770;2023-08-06T16:58:22;20.20;99.90
54178;DHT22;40085;53.004;6.770;2023-08-06T17:00:49;20.30;99.90
54178;DHT22;40085;53.004;6.770;2023-08-06T17:03:15;20.40;99.90
54178;DHT22;40085;53.004;6.770;2023-08-06T17:05:42;20.40;99.90
54178;DHT22;40085;53.004;6.770;2023-08-06T17:08:08;20.20;99.90
54178;DHT22;40085;53.004;6.770;2023-08-06T17:10:34;20.50;99.90
54178;DHT22;40085;53.004;6.770;2023-08-06T17:13:00;20.60;99.90
54178;DHT22;40085;53.004;6.770;2023-08-06T17:15:26;21.10;99.90
54178;DHT22;40085;53.004;6.770;2023-08-06T17:20:18;24.40;99.90
54178;DHT22;40085;53.004;6.770;2023-08-06T17:22:43;24.30;99.90
54178;DHT22;40085;53.004;6.770;2023-08-06T17:32:27;21.40;1.00
54178;DHT22;40085;53.004;6.770;2023-08-06T17:34:53;21.20;99.90
54178;DHT22;40085;53.004;6.770;2023-08-06T17:39:44;20.30;1.00